createdAt,value
2022-11-17T00:01:25.582Z,8.00
2022-11-17T00:03:54.116Z,8.00
2022-11-17T00:06:22.550Z,8.00
2022-11-17T00:08:53.887Z,8.00
2022-11-17T00:11:22.282Z,8.00
2022-11-17T00:14:07.883Z,8.10
2022-11-17T00:16:36.140Z,8.10
2022-11-17T00:19:21.936Z,8.20
2022-11-17T00:21:50.385Z,8.10
2022-11-17T00:24:20.308Z,7.90
2022-11-17T00:29:44.159Z,7.80
2022-11-17T00:32:31.109Z,7.80
2022-11-17T00:34:59.449Z,7.80
2022-11-17T00:37:28.545Z,7.80
2022-11-17T00:40:00.669Z,7.90
2022-11-17T00:42:29.204Z,7.80
2022-11-17T00:44:58.971Z,7.70
2022-11-17T00:47:27.523Z,7.70
2022-11-17T00:49:55.527Z,7.80
2022-11-17T00:52:23.625Z,7.80
2022-11-17T00:54:52.149Z,7.90
2022-11-17T00:57:21.030Z,8.00
2022-11-17T00:59:49.432Z,8.10
2022-11-17T01:02:19.582Z,8.20
2022-11-17T01:04:48.370Z,8.30
2022-11-17T01:07:16.748Z,8.30
2022-11-17T01:09:45.541Z,8.30
2022-11-17T01:12:14.044Z,8.30
2022-11-17T01:14:42.682Z,8.30
2022-11-17T01:17:11.557Z,8.20
2022-11-17T01:19:41.426Z,8.20
2022-11-17T01:22:10.587Z,8.20
2022-11-17T01:24:39.133Z,8.20
2022-11-17T01:27:07.610Z,8.20
2022-11-17T01:29:35.664Z,8.20
2022-11-17T01:32:03.767Z,8.30
2022-11-17T01:34:32.427Z,8.30
2022-11-17T01:37:20.909Z,8.30
2022-11-17T01:39:49.465Z,8.30
2022-11-17T01:42:19.113Z,8.30
2022-11-17T01:44:55.405Z,8.30
2022-11-17T01:47:25.066Z,8.30
2022-11-17T01:49:55.977Z,8.20
2022-11-17T01:52:26.749Z,8.20
2022-11-17T01:54:55.255Z,8.10
2022-11-17T01:57:25.472Z,8.10
2022-11-17T01:59:54.962Z,8.10
2022-11-17T02:02:23.393Z,8.10
2022-11-17T02:04:55.930Z,8.10
2022-11-17T02:07:28.395Z,8.10
2022-11-17T02:09:57.827Z,8.10
2022-11-17T02:12:27.881Z,8.10
2022-11-17T02:14:56.346Z,8.10
2022-11-17T02:17:25.671Z,8.10
2022-11-17T02:19:58.279Z,8.10
2022-11-17T02:22:42.305Z,8.10
2022-11-17T02:25:26.723Z,8.10
2022-11-17T02:28:08.643Z,8.00
2022-11-17T02:30:40.571Z,8.00
2022-11-17T02:33:13.500Z,8.00
2022-11-17T02:35:45.786Z,8.00
2022-11-17T02:38:20.445Z,7.90
2022-11-17T02:40:51.245Z,8.00
2022-11-17T02:43:39.953Z,8.00
2022-11-17T02:46:09.511Z,8.00
2022-11-17T02:48:39.074Z,8.00
2022-11-17T02:51:09.441Z,8.10
2022-11-17T02:53:38.972Z,8.10
2022-11-17T02:56:09.127Z,8.00
2022-11-17T02:58:38.668Z,8.00
2022-11-17T03:01:24.311Z,7.90
2022-11-17T03:04:00.646Z,7.90
2022-11-17T03:06:32.465Z,8.00
2022-11-17T03:09:05.477Z,8.00
2022-11-17T03:11:40.893Z,8.10
2022-11-17T03:14:15.413Z,8.10
2022-11-17T03:16:48.109Z,8.00
2022-11-17T03:19:19.558Z,8.10
2022-11-17T03:21:49.754Z,8.10
2022-11-17T03:24:20.035Z,8.10
2022-11-17T03:26:53.444Z,8.10
2022-11-17T03:29:24.649Z,8.20
2022-11-17T03:31:57.760Z,8.40
2022-11-17T03:34:28.161Z,8.60
2022-11-17T03:36:59.380Z,8.70
2022-11-17T03:39:31.596Z,8.80
2022-11-17T03:42:01.754Z,8.90
2022-11-17T03:44:35.425Z,8.90
2022-11-17T03:47:05.471Z,8.90
2022-11-17T03:49:38.650Z,8.90
2022-11-17T03:52:07.108Z,8.90
2022-11-17T03:54:35.880Z,8.90
2022-11-17T03:57:06.174Z,8.90
2022-11-17T03:59:39.698Z,8.90
2022-11-17T04:02:08.309Z,8.80
2022-11-17T04:04:50.330Z,8.70
2022-11-17T04:07:18.624Z,8.60
2022-11-17T04:09:47.601Z,8.60
2022-11-17T04:12:33.162Z,8.60
2022-11-17T04:15:20.346Z,8.50
2022-11-17T04:17:48.910Z,8.60
2022-11-17T04:20:17.868Z,8.60
2022-11-17T04:22:46.508Z,8.60
2022-11-17T04:25:35.412Z,8.50
2022-11-17T04:28:20.685Z,8.60
2022-11-17T04:30:51.008Z,8.60
2022-11-17T04:33:19.508Z,8.70
2022-11-17T04:35:51.051Z,8.70
2022-11-17T04:38:19.720Z,8.60
2022-11-17T04:41:01.598Z,8.50
2022-11-17T04:43:29.969Z,8.40
2022-11-17T04:46:01.718Z,8.40
2022-11-17T04:48:30.250Z,8.30
2022-11-17T04:50:58.892Z,8.30
2022-11-17T04:53:27.132Z,8.20
2022-11-17T04:55:55.355Z,8.20
2022-11-17T04:58:23.825Z,8.30
2022-11-17T05:00:52.219Z,8.30
2022-11-17T05:03:22.649Z,8.20
2022-11-17T05:05:51.067Z,8.10
2022-11-17T05:08:19.660Z,7.90
2022-11-17T05:11:05.480Z,7.80
2022-11-17T05:13:34.136Z,7.80
2022-11-17T05:16:19.657Z,7.80
2022-11-17T05:18:50.035Z,7.80
2022-11-17T05:21:20.036Z,7.80
2022-11-17T05:23:57.061Z,7.90
2022-11-17T05:26:26.701Z,8.00
2022-11-17T05:28:56.021Z,8.30
2022-11-17T05:31:24.476Z,8.40
2022-11-17T05:33:54.560Z,8.50
2022-11-17T05:36:23.554Z,8.60
2022-11-17T05:38:52.520Z,8.60
2022-11-17T05:41:21.361Z,8.70
2022-11-17T05:43:50.940Z,8.80
2022-11-17T05:46:20.047Z,8.80
2022-11-17T05:48:49.000Z,8.80
2022-11-17T05:51:19.462Z,8.80
2022-11-17T05:53:47.780Z,8.80
2022-11-17T05:56:23.595Z,8.80
2022-11-17T05:58:53.841Z,8.80
2022-11-17T06:01:25.278Z,8.80
2022-11-17T06:03:55.240Z,8.80
2022-11-17T06:06:25.526Z,8.80
2022-11-17T06:08:53.831Z,8.70
2022-11-17T06:11:21.879Z,8.60
2022-11-17T06:13:50.686Z,8.50
2022-11-17T06:16:20.913Z,8.50
2022-11-17T06:18:51.680Z,8.50
2022-11-17T06:21:20.128Z,8.50
2022-11-17T06:23:50.523Z,8.50
2022-11-17T06:26:18.550Z,8.50
2022-11-17T06:28:48.268Z,8.50
2022-11-17T06:31:17.173Z,8.50
2022-11-17T06:33:46.475Z,8.60
2022-11-17T06:36:16.425Z,8.60
2022-11-17T06:38:45.095Z,8.60
2022-11-17T06:41:14.769Z,8.70
2022-11-17T06:43:43.431Z,8.70
2022-11-17T06:46:13.905Z,8.70
2022-11-17T06:48:42.224Z,8.80
2022-11-17T06:51:10.321Z,8.80
2022-11-17T06:53:38.619Z,8.80
2022-11-17T06:56:09.290Z,8.90
2022-11-17T06:58:40.400Z,8.90
2022-11-17T07:01:09.445Z,8.90
2022-11-17T07:03:38.411Z,8.90
2022-11-17T07:06:07.771Z,8.90
2022-11-17T07:08:37.311Z,8.90
2022-11-17T07:11:06.203Z,9.00
2022-11-17T07:13:35.200Z,9.00
2022-11-17T07:16:06.205Z,9.00
2022-11-17T07:18:35.554Z,9.00
2022-11-17T07:21:05.326Z,8.90
2022-11-17T07:23:34.588Z,9.00
2022-11-17T07:26:03.429Z,9.10
2022-11-17T07:28:36.310Z,9.20
2022-11-17T07:31:07.640Z,9.20
2022-11-17T07:33:36.430Z,9.30
2022-11-17T07:36:05.721Z,9.40
2022-11-17T07:38:35.377Z,9.50
2022-11-17T07:41:04.053Z,9.70
2022-11-17T07:43:32.654Z,9.80
2022-11-17T07:46:06.748Z,9.70
2022-11-17T07:48:35.678Z,9.70
2022-11-17T07:51:05.000Z,9.70
2022-11-17T07:53:36.031Z,9.70
2022-11-17T07:56:05.693Z,9.80
2022-11-17T07:58:34.707Z,9.90
2022-11-17T08:01:07.558Z,10.00
2022-11-17T08:03:36.305Z,9.90
2022-11-17T08:06:05.396Z,9.80
2022-11-17T08:08:34.464Z,9.60
2022-11-17T08:11:05.461Z,9.50
2022-11-17T08:13:33.814Z,9.50
2022-11-17T08:16:02.928Z,9.40
2022-11-17T08:18:33.324Z,9.50
2022-11-17T08:21:02.697Z,9.50
2022-11-17T08:23:31.208Z,9.60
2022-11-17T08:26:00.004Z,9.60
2022-11-17T08:28:28.843Z,9.60
2022-11-17T08:30:57.877Z,9.70
2022-11-17T08:33:26.377Z,9.80
2022-11-17T08:35:57.809Z,10.20
2022-11-17T08:38:29.648Z,10.50
2022-11-17T08:40:59.788Z,10.60
2022-11-17T08:43:28.565Z,10.70
2022-11-17T08:45:56.857Z,10.80
2022-11-17T08:48:25.547Z,10.70
2022-11-17T08:50:56.089Z,10.60
2022-11-17T08:53:26.374Z,10.70
2022-11-17T08:55:55.167Z,10.80
2022-11-17T08:58:23.816Z,11.00
2022-11-17T09:00:52.477Z,11.80
2022-11-17T09:03:20.639Z,13.50
2022-11-17T09:05:49.358Z,15.00
2022-11-17T09:11:08.747Z,18.60
2022-11-17T09:13:37.773Z,19.80
2022-11-17T09:16:07.407Z,20.60
2022-11-17T09:18:37.139Z,20.50
2022-11-17T09:21:06.799Z,20.50
2022-11-17T09:23:37.386Z,20.10
2022-11-17T09:26:06.624Z,18.80
2022-11-17T09:28:35.661Z,17.40
2022-11-17T09:31:08.185Z,16.50
2022-11-17T09:33:36.889Z,15.90
2022-11-17T09:36:07.606Z,15.40
2022-11-17T09:38:38.471Z,14.90
2022-11-17T09:41:20.150Z,14.50
2022-11-17T09:43:52.658Z,14.20
2022-11-17T09:46:23.260Z,13.80
2022-11-17T09:48:55.785Z,13.50
2022-11-17T09:51:27.018Z,13.20
2022-11-17T09:54:01.394Z,13.10
2022-11-17T09:56:30.127Z,12.80
2022-11-17T09:59:00.213Z,12.60
2022-11-17T10:01:30.434Z,12.40
2022-11-17T10:04:00.401Z,12.30
2022-11-17T10:06:29.496Z,12.30
2022-11-17T10:09:01.704Z,12.20
2022-11-17T10:11:34.256Z,12.10
2022-11-17T10:14:13.029Z,12.10
2022-11-17T10:16:42.280Z,12.10
2022-11-17T10:19:16.137Z,12.10
2022-11-17T10:21:44.857Z,12.10
2022-11-17T10:24:34.379Z,12.10
2022-11-17T10:27:03.656Z,12.10
2022-11-17T10:29:32.242Z,12.10
2022-11-17T10:32:02.048Z,12.20
2022-11-17T10:34:40.518Z,12.20
2022-11-17T10:37:24.816Z,12.20
2022-11-17T10:40:03.753Z,12.30
2022-11-17T10:42:32.230Z,12.40
2022-11-17T10:45:02.695Z,12.40
2022-11-17T10:47:32.927Z,12.50
2022-11-17T10:50:10.343Z,12.60
2022-11-17T10:52:39.294Z,12.60
2022-11-17T10:55:24.849Z,12.70
2022-11-17T10:57:54.885Z,12.80
2022-11-17T11:00:24.560Z,12.80
2022-11-17T11:03:03.933Z,12.90
2022-11-17T11:05:32.617Z,12.90
2022-11-17T11:08:18.108Z,12.90
2022-11-17T11:10:48.899Z,12.90
2022-11-17T11:13:21.688Z,12.90
2022-11-17T11:15:49.858Z,12.90
2022-11-17T11:18:18.806Z,13.00
2022-11-17T11:20:51.703Z,13.00
2022-11-17T11:23:22.972Z,13.00
2022-11-17T11:25:54.233Z,13.00
2022-11-17T11:28:32.919Z,13.10
2022-11-17T11:31:06.738Z,13.10
2022-11-17T11:33:37.984Z,13.20
2022-11-17T11:36:15.805Z,13.30
2022-11-17T11:38:51.072Z,13.40
2022-11-17T11:41:26.263Z,13.50
2022-11-17T11:44:01.077Z,13.60
2022-11-17T11:46:36.552Z,13.70
2022-11-17T11:49:09.161Z,13.90
2022-11-17T11:51:39.571Z,13.90
2022-11-17T11:54:14.277Z,14.00
2022-11-17T11:56:46.214Z,14.00
2022-11-17T11:59:17.226Z,14.00
2022-11-17T12:01:48.935Z,14.00
2022-11-17T12:04:25.214Z,14.00
2022-11-17T12:06:56.485Z,14.00
2022-11-17T12:09:45.932Z,14.00
2022-11-17T12:12:17.168Z,14.00
2022-11-17T12:15:00.172Z,14.00
2022-11-17T12:17:28.680Z,14.10
2022-11-17T12:20:00.097Z,14.50
2022-11-17T12:22:57.089Z,15.30
2022-11-17T12:25:27.988Z,16.00
2022-11-17T12:27:58.334Z,16.70
2022-11-17T12:30:45.466Z,17.00
2022-11-17T12:33:13.679Z,17.10
2022-11-17T12:35:42.271Z,17.00
2022-11-17T12:38:29.107Z,16.90
2022-11-17T12:40:57.764Z,16.80
2022-11-17T12:43:29.989Z,16.70
2022-11-17T12:46:08.507Z,16.80
2022-11-17T12:48:37.991Z,16.80
2022-11-17T12:51:10.737Z,16.60
2022-11-17T12:53:57.801Z,16.20
2022-11-17T12:56:34.622Z,16.20
2022-11-17T12:59:14.130Z,16.40
2022-11-17T13:01:46.082Z,16.60
2022-11-17T13:04:16.534Z,16.80
2022-11-17T13:06:59.760Z,16.90
2022-11-17T13:09:29.201Z,17.00
2022-11-17T13:12:01.307Z,17.00
2022-11-17T13:14:32.296Z,17.10
2022-11-17T13:17:01.581Z,16.90
2022-11-17T13:19:35.044Z,16.60
2022-11-17T13:22:05.362Z,16.50
2022-11-17T13:24:35.026Z,16.40
2022-11-17T13:27:04.051Z,16.20
2022-11-17T13:29:35.389Z,16.20
2022-11-17T13:32:12.147Z,16.30
2022-11-17T13:34:46.962Z,16.80
2022-11-17T13:37:17.302Z,17.70
2022-11-17T13:39:55.681Z,18.70
2022-11-17T13:42:25.102Z,19.50
2022-11-17T13:44:55.996Z,19.80
2022-11-17T13:47:28.766Z,20.40
2022-11-17T13:49:57.054Z,20.90
2022-11-17T13:52:37.029Z,21.10
2022-11-17T13:55:09.152Z,21.20
2022-11-17T13:57:37.370Z,21.40
2022-11-17T14:00:08.261Z,21.60
2022-11-17T14:02:36.965Z,22.00
2022-11-17T14:05:09.531Z,22.80
2022-11-17T14:07:39.000Z,23.50
2022-11-17T14:10:14.456Z,24.20
2022-11-17T14:12:43.407Z,24.40
2022-11-17T14:15:16.922Z,24.80
2022-11-17T14:17:50.092Z,25.10
2022-11-17T14:20:20.028Z,25.20
2022-11-17T14:23:01.592Z,25.00
2022-11-17T14:25:30.234Z,24.40
2022-11-17T14:27:58.551Z,24.10
2022-11-17T14:30:28.574Z,23.60
2022-11-17T14:33:05.347Z,23.10
2022-11-17T14:35:36.424Z,22.70
2022-11-17T14:38:05.427Z,22.10
2022-11-17T14:40:34.585Z,21.60
2022-11-17T14:43:03.157Z,21.20
2022-11-17T14:45:35.463Z,20.60
2022-11-17T14:48:06.188Z,20.00
2022-11-17T14:50:34.978Z,19.60
2022-11-17T14:53:03.288Z,19.30
2022-11-17T14:55:31.396Z,18.80
2022-11-17T14:58:00.285Z,18.50
2022-11-17T15:00:28.834Z,18.20
2022-11-17T15:02:58.552Z,18.00
2022-11-17T15:05:27.698Z,17.70
2022-11-17T15:07:57.533Z,17.50
2022-11-17T15:10:26.479Z,17.20
2022-11-17T15:12:55.906Z,17.00
2022-11-17T15:15:24.782Z,16.80
2022-11-17T15:17:54.012Z,16.60
2022-11-17T15:20:24.437Z,16.40
2022-11-17T15:22:53.084Z,16.30
2022-11-17T15:25:21.149Z,16.20
2022-11-17T15:27:49.447Z,16.00
2022-11-17T15:30:18.148Z,15.70
2022-11-17T15:32:46.697Z,15.60
2022-11-17T15:35:15.077Z,15.50
2022-11-17T15:37:44.510Z,15.40
2022-11-17T15:40:19.033Z,15.20
2022-11-17T15:42:48.410Z,15.10
2022-11-17T15:45:16.725Z,14.90
2022-11-17T15:47:44.910Z,14.80
2022-11-17T15:50:13.333Z,14.60
2022-11-17T15:53:02.945Z,14.40
2022-11-17T15:55:31.899Z,14.30
2022-11-17T15:58:00.612Z,14.10
2022-11-17T16:00:29.075Z,14.00
2022-11-17T16:02:59.014Z,14.00
2022-11-17T16:05:27.200Z,13.90
2022-11-17T16:07:56.349Z,13.90
2022-11-17T16:10:24.553Z,13.90
2022-11-17T16:12:54.283Z,13.80
2022-11-17T16:15:22.396Z,13.70
2022-11-17T16:17:50.982Z,13.60
2022-11-17T16:20:20.070Z,13.50
2022-11-17T16:22:48.194Z,13.50
2022-11-17T16:25:16.324Z,13.30
2022-11-17T16:27:44.609Z,13.30
2022-11-17T16:30:15.032Z,13.20
2022-11-17T16:32:43.146Z,13.30
2022-11-17T16:35:11.575Z,13.20
2022-11-17T16:37:40.209Z,13.20
2022-11-17T16:40:08.902Z,13.20
2022-11-17T16:42:37.357Z,13.20
2022-11-17T16:45:05.881Z,13.20
2022-11-17T16:47:36.053Z,13.10
2022-11-17T16:50:04.776Z,13.10
2022-11-17T16:52:35.190Z,13.00
2022-11-17T16:55:05.020Z,13.00
2022-11-17T16:57:34.308Z,12.90
2022-11-17T17:00:02.725Z,12.80
2022-11-17T17:02:32.798Z,12.80
2022-11-17T17:05:03.026Z,12.70
2022-11-17T17:07:31.596Z,12.70
2022-11-17T17:10:00.106Z,12.60
2022-11-17T17:12:28.712Z,12.40
2022-11-17T17:14:57.403Z,12.30
2022-11-17T17:17:26.282Z,12.10
2022-11-17T17:19:54.884Z,11.90
2022-11-17T17:22:25.191Z,11.80
2022-11-17T17:24:53.408Z,11.80
2022-11-17T17:27:22.095Z,11.70
2022-11-17T17:29:50.953Z,11.60
2022-11-17T17:32:19.468Z,11.50
2022-11-17T17:34:47.661Z,11.40
2022-11-17T17:37:17.313Z,11.40
2022-11-17T17:39:46.892Z,11.40
2022-11-17T17:42:17.023Z,11.30
2022-11-17T17:44:45.617Z,11.30
2022-11-17T17:47:14.430Z,11.30
2022-11-17T17:49:43.131Z,11.30
2022-11-17T17:52:13.954Z,11.30
2022-11-17T17:54:42.919Z,11.20
2022-11-17T17:57:12.760Z,11.20
2022-11-17T17:59:40.909Z,11.20
2022-11-17T18:02:10.723Z,11.10
2022-11-17T18:04:39.020Z,11.10
2022-11-17T18:07:07.257Z,11.10
2022-11-17T18:09:36.025Z,11.10
2022-11-17T18:12:04.862Z,11.00
2022-11-17T18:14:35.001Z,11.00
2022-11-17T18:17:03.486Z,11.00
2022-11-17T18:19:33.426Z,10.90
2022-11-17T18:22:02.075Z,10.90
2022-11-17T18:24:30.144Z,10.90
2022-11-17T18:26:58.239Z,10.90
2022-11-17T18:29:26.554Z,10.90
2022-11-17T18:31:56.703Z,10.90
2022-11-17T18:34:25.567Z,10.90
2022-11-17T18:36:55.894Z,10.90
2022-11-17T18:39:24.702Z,10.90
2022-11-17T18:41:53.472Z,10.90
2022-11-17T18:44:22.150Z,10.90
2022-11-17T18:46:50.342Z,10.90
2022-11-17T18:49:20.769Z,10.90
2022-11-17T18:51:49.163Z,10.90
2022-11-17T18:54:17.798Z,10.90
2022-11-17T18:56:45.970Z,10.90
2022-11-17T18:59:14.444Z,11.00
2022-11-17T19:01:44.229Z,11.00
2022-11-17T19:04:13.969Z,11.00
2022-11-17T19:06:43.874Z,11.00
2022-11-17T19:09:13.744Z,11.00
2022-11-17T19:11:42.349Z,11.00
2022-11-17T19:14:10.797Z,11.00
2022-11-17T19:16:44.932Z,11.00
2022-11-17T19:19:15.311Z,10.90
2022-11-17T19:21:45.367Z,11.00
2022-11-17T19:24:13.794Z,11.00
2022-11-17T19:26:42.937Z,11.00
2022-11-17T19:29:16.839Z,11.00
2022-11-17T19:31:46.326Z,10.90
2022-11-17T19:34:14.940Z,10.90
2022-11-17T19:36:45.452Z,10.80
2022-11-17T19:39:14.920Z,10.80
2022-11-17T19:41:45.277Z,10.80
2022-11-17T19:44:13.889Z,10.80
2022-11-17T19:46:43.667Z,10.80
2022-11-17T19:49:12.951Z,10.80
2022-11-17T19:51:42.086Z,10.70
2022-11-17T19:54:13.802Z,10.70
2022-11-17T19:56:42.357Z,10.70
2022-11-17T19:59:15.520Z,10.70
2022-11-17T20:01:45.401Z,10.70
2022-11-17T20:04:13.693Z,10.80
2022-11-17T20:06:42.094Z,10.70
2022-11-17T20:09:13.621Z,10.70
2022-11-17T20:11:42.269Z,10.70
2022-11-17T20:14:10.921Z,10.70
2022-11-17T20:16:39.918Z,10.70
2022-11-17T20:19:08.118Z,10.70
2022-11-17T20:21:36.229Z,10.70
2022-11-17T20:24:05.848Z,10.70
2022-11-17T20:26:36.531Z,10.70
2022-11-17T20:29:05.564Z,10.70
2022-11-17T20:31:35.186Z,10.60
2022-11-17T20:34:04.221Z,10.60
2022-11-17T20:36:33.926Z,10.60
2022-11-17T20:39:03.235Z,10.60
2022-11-17T20:41:31.686Z,10.60
2022-11-17T20:44:02.152Z,10.60
2022-11-17T20:46:31.273Z,10.60
2022-11-17T20:48:59.702Z,10.50
2022-11-17T20:51:27.997Z,10.40
2022-11-17T20:53:57.178Z,10.40
2022-11-17T20:56:25.799Z,10.40
2022-11-17T20:58:54.617Z,10.40
2022-11-17T21:01:25.645Z,10.30
2022-11-17T21:03:57.094Z,10.30
2022-11-17T21:06:25.779Z,10.20
2022-11-17T21:08:54.457Z,10.20
2022-11-17T21:11:41.385Z,10.10
2022-11-17T21:14:10.267Z,10.20
2022-11-17T21:16:41.275Z,10.10
2022-11-17T21:19:09.989Z,10.10
2022-11-17T21:21:39.764Z,10.10
2022-11-17T21:24:11.141Z,10.20
2022-11-17T21:26:40.803Z,10.10
2022-11-17T21:29:09.314Z,10.20
2022-11-17T21:31:38.380Z,10.20
2022-11-17T21:34:08.767Z,10.20
2022-11-17T21:36:36.948Z,10.10
2022-11-17T21:39:05.895Z,10.10
2022-11-17T21:41:38.301Z,10.10
2022-11-17T21:44:06.981Z,10.10
2022-11-17T21:46:36.650Z,10.10
2022-11-17T21:49:05.243Z,10.10
2022-11-17T21:51:38.675Z,10.10
2022-11-17T21:54:08.295Z,10.10
2022-11-17T21:56:37.165Z,10.10
2022-11-17T21:59:06.718Z,10.10
2022-11-17T22:01:35.978Z,10.10
2022-11-17T22:04:05.164Z,10.10
2022-11-17T22:06:35.128Z,10.10
2022-11-17T22:09:04.016Z,10.10
2022-11-17T22:11:38.914Z,10.10
2022-11-17T22:14:08.438Z,10.10
2022-11-17T22:16:38.230Z,10.10
2022-11-17T22:19:07.608Z,10.20
2022-11-17T22:21:39.088Z,10.20
2022-11-17T22:24:09.918Z,10.20
2022-11-17T22:26:38.943Z,10.10
2022-11-17T22:29:09.166Z,10.00
2022-11-17T22:31:37.680Z,10.00
2022-11-17T22:34:06.666Z,10.00
2022-11-17T22:36:35.525Z,9.90
2022-11-17T22:39:05.795Z,10.00
2022-11-17T22:41:34.479Z,9.90
2022-11-17T22:44:03.060Z,9.90
2022-11-17T22:46:32.418Z,9.90
2022-11-17T22:49:01.360Z,9.90
2022-11-17T22:51:47.338Z,9.90
2022-11-17T22:54:18.281Z,9.90
2022-11-17T22:56:46.769Z,9.90
2022-11-17T22:59:15.715Z,10.00
2022-11-17T23:01:44.578Z,9.90
2022-11-17T23:04:14.540Z,9.90
2022-11-17T23:06:43.147Z,9.90
2022-11-17T23:09:12.207Z,9.80
2022-11-17T23:11:42.254Z,9.90
2022-11-17T23:14:12.108Z,9.90
2022-11-17T23:16:43.156Z,9.90
2022-11-17T23:19:13.508Z,9.90
2022-11-17T23:21:42.128Z,9.90
2022-11-17T23:24:13.024Z,9.90
2022-11-17T23:26:43.614Z,9.90
2022-11-17T23:29:12.487Z,9.80
2022-11-17T23:31:41.377Z,9.80
2022-11-17T23:34:10.267Z,9.90
2022-11-17T23:36:38.909Z,9.80
2022-11-17T23:39:07.249Z,9.80
2022-11-17T23:41:36.066Z,9.80
2022-11-17T23:44:06.653Z,9.80
2022-11-17T23:46:35.866Z,9.80
2022-11-17T23:49:06.613Z,9.80
2022-11-17T23:51:35.347Z,9.70
2022-11-17T23:54:04.417Z,9.80
2022-11-17T23:56:33.932Z,9.80
2022-11-17T23:59:02.357Z,9.80
